Time;durP1;ratioP1;P1;durP2;ratioP2;P2;SDS_P1;SDS_P2;PMS_P1;PMS_P2;Temp;Humidity;BMP_temperature;BMP_pressure;BME280_temperature;BME280_humidity;BME280_pressure;Samples;Min_cycle;Max_cycle;Signal;HPM_P1;HPM_P2
2022/06/21 00:01:27;;;;;;;;;;;;;;;15.15;77.59;94938.88;5072849;28;1109;-48
2022/06/21 00:03:54;;;;;;;;;;;;;;;15.05;77.94;94937.56;5072885;28;1091;-48
2022/06/21 00:06:23;;;;;;;;;;;;;;;15.09;77.90;94945.03;5079845;28;1910;-48
2022/06/21 00:08:49;;;;;;;;;;;;;;;15.18;77.32;94938.50;5093071;28;1099;-48
2022/06/21 00:11:24;;;;;;;;;;;;;;;15.07;77.80;94933.63;5092900;28;999;-48
2022/06/21 00:13:51;;;;;;;;;;;;;;;14.86;78.02;94926.41;5094429;28;1068;-48
2022/06/21 00:16:17;;;;;;;;;;;;;;;14.87;78.61;94928.06;5096851;28;1047;-48
2022/06/21 00:18:45;;;;;;;;;;;;;;;14.86;78.49;94930.97;5096722;28;989;-48
2022/06/21 00:21:13;;;;;;;;;;;;;;;14.72;78.49;94936.22;5096549;28;1036;-48
2022/06/21 00:23:39;;;;;;;;;;;;;;;14.80;78.97;94935.25;5096404;28;1084;-48
2022/06/21 00:26:08;;;;;;;;;;;;;;;14.79;79.20;94928.19;5096483;28;1057;-48
2022/06/21 00:28:34;;;;;;;;;;;;;;;14.88;78.77;94921.66;5096659;28;1910;-48
2022/06/21 00:31:00;;;;;;;;;;;;;;;14.81;78.76;94928.84;5096386;28;1215;-48
2022/06/21 00:33:29;;;;;;;;;;;;;;;14.79;79.09;94936.28;5096565;28;997;-48
2022/06/21 00:35:58;;;;;;;;;;;;;;;14.78;79.10;94940.00;5096408;28;978;-48
2022/06/21 00:38:42;;;;;;;;;;;;;;;14.56;79.30;94939.94;5096268;28;1220;-48
2022/06/21 00:41:10;;;;;;;;;;;;;;;14.37;79.65;94937.88;5096419;28;1004;-48
2022/06/21 00:43:39;;;;;;;;;;;;;;;14.50;79.88;94932.66;5096384;28;972;-48
2022/06/21 00:46:20;;;;;;;;;;;;;;;14.62;78.98;94930.31;5096080;28;1047;-48
2022/06/21 00:48:47;;;;;;;;;;;;;;;14.69;79.04;94930.38;5096195;28;937;-48
2022/06/21 00:51:25;;;;;;;;;;;;;;;14.67;79.02;94919.81;5096013;28;1111;-48
2022/06/21 00:53:55;;;;;;;;;;;;;;;14.45;79.03;94927.00;5096148;28;1040;-48
2022/06/21 00:56:36;;;;;;;;;;;;;;;14.35;79.81;94921.94;5096041;28;978;-48
2022/06/21 00:59:37;;;;;;;;;;;;;;;14.39;79.62;94917.84;5096030;28;1108;-48
2022/06/21 01:02:05;;;;;;;;;;;;;;;14.15;80.30;94921.72;5013579;28;1299;-47
2022/06/21 01:04:31;;;;;;;;;;;;;;;14.15;80.86;94923.56;5080253;28;965;-48
2022/06/21 01:06:59;;;;;;;;;;;;;;;14.33;80.15;94928.53;5083366;28;1997;-48
2022/06/21 01:09:28;;;;;;;;;;;;;;;14.39;80.39;94923.22;5075615;28;1000;-48
2022/06/21 01:11:58;;;;;;;;;;;;;;;14.59;80.04;94926.16;5075328;28;969;-48
2022/06/21 01:14:25;;;;;;;;;;;;;;;14.50;80.07;94929.97;5075373;28;1033;-48
2022/06/21 01:16:51;;;;;;;;;;;;;;;14.48;80.32;94925.81;5075247;28;1041;-48
2022/06/21 01:19:23;;;;;;;;;;;;;;;14.44;80.29;94928.88;5075552;28;970;-48
2022/06/21 01:21:52;;;;;;;;;;;;;;;14.31;80.07;94912.59;5075292;28;1056;-48
2022/06/21 01:24:28;;;;;;;;;;;;;;;14.18;80.29;94918.63;5075007;28;1056;-48
2022/06/21 01:27:00;;;;;;;;;;;;;;;14.22;80.60;94933.34;5075059;28;1972;-48
2022/06/21 01:29:28;;;;;;;;;;;;;;;14.31;80.23;94920.66;5075295;28;1033;-48
2022/06/21 01:31:56;;;;;;;;;;;;;;;14.28;80.47;94925.56;5074951;28;1278;-48
2022/06/21 01:34:23;;;;;;;;;;;;;;;14.14;80.59;94922.72;5075029;28;1077;-48
2022/06/21 01:36:54;;;;;;;;;;;;;;;13.95;81.41;94917.94;5074841;28;1192;-48
2022/06/21 01:39:26;;;;;;;;;;;;;;;13.93;81.63;94920.00;5075606;28;942;-48
2022/06/21 01:42:05;;;;;;;;;;;;;;;14.07;81.30;94924.50;5074823;28;1040;-48
2022/06/21 01:44:34;;;;;;;;;;;;;;;14.04;80.88;94917.66;5074983;28;962;-48
2022/06/21 01:47:01;;;;;;;;;;;;;;;13.94;81.10;94927.03;5074699;28;1980;-48
2022/06/21 01:49:29;;;;;;;;;;;;;;;13.93;81.42;94928.06;5074746;28;954;-48
2022/06/21 01:51:57;;;;;;;;;;;;;;;14.05;81.18;94935.44;5074591;28;1056;-48
2022/06/21 01:54:24;;;;;;;;;;;;;;;14.15;80.76;94932.47;5074689;28;954;-48
2022/06/21 01:56:51;;;;;;;;;;;;;;;13.98;81.20;94928.31;5074444;28;1021;-48
2022/06/21 01:59:20;;;;;;;;;;;;;;;14.22;79.99;94927.16;5056976;28;1052;-48
2022/06/21 02:01:58;;;;;;;;;;;;;;;14.02;80.75;94922.38;5074270;28;1081;-48
2022/06/21 02:04:26;;;;;;;;;;;;;;;13.98;80.95;94918.41;5074400;28;1033;-48
2022/06/21 02:06:54;;;;;;;;;;;;;;;14.13;80.13;94921.03;5086042;28;1988;-47
2022/06/21 02:09:31;;;;;;;;;;;;;;;14.14;80.46;94928.09;5094666;28;2110;-48
2022/06/21 02:12:09;;;;;;;;;;;;;;;14.05;80.60;94932.75;5094591;28;977;-48
2022/06/21 02:14:44;;;;;;;;;;;;;;;13.74;81.05;94924.91;5094480;28;1087;-48
2022/06/21 02:17:27;;;;;;;;;;;;;;;13.67;81.82;94923.97;5094582;28;960;-48
2022/06/21 02:19:53;;;;;;;;;;;;;;;13.63;81.89;94925.38;5094509;28;1146;-50
2022/06/21 02:22:21;;;;;;;;;;;;;;;13.67;82.35;94921.28;5094239;28;1036;-48
2022/06/21 02:24:48;;;;;;;;;;;;;;;13.82;81.71;94914.06;5094257;28;1127;-48
2022/06/21 02:27:15;;;;;;;;;;;;;;;13.88;81.32;94917.84;5094038;28;1975;-48
2022/06/21 02:29:47;;;;;;;;;;;;;;;13.90;81.24;94915.81;5094486;28;1056;-48
2022/06/21 02:32:18;;;;;;;;;;;;;;;13.86;81.19;94918.03;5094030;28;1123;-48
2022/06/21 02:34:47;;;;;;;;;;;;;;;13.61;81.57;94916.66;5094037;28;1092;-48
2022/06/21 02:37:15;;;;;;;;;;;;;;;13.52;82.06;94920.47;5093522;28;972;-48
2022/06/21 02:39:41;;;;;;;;;;;;;;;13.61;82.57;94928.25;5093982;28;998;-48
2022/06/21 02:42:16;;;;;;;;;;;;;;;13.70;81.98;94929.00;5093938;28;1225;-48
2022/06/21 02:44:44;;;;;;;;;;;;;;;13.64;81.06;94925.19;5093954;28;1021;-48
2022/06/21 02:47:15;;;;;;;;;;;;;;;13.47;82.49;94923.72;5093914;28;1983;-48
2022/06/21 02:50:04;;;;;;;;;;;;;;;13.64;81.74;94921.69;5093970;28;1004;-48
2022/06/21 02:52:36;;;;;;;;;;;;;;;13.48;82.34;94923.50;5083043;28;1246;-48
2022/06/21 02:55:21;;;;;;;;;;;;;;;13.68;81.41;94925.66;5093896;28;982;-48
2022/06/21 02:57:49;;;;;;;;;;;;;;;13.69;81.49;94918.44;5093768;28;1028;-48
2022/06/21 03:00:18;;;;;;;;;;;;;;;13.73;81.42;94930.47;5093713;28;1060;-48
2022/06/21 03:02:44;;;;;;;;;;;;;;;13.68;81.73;94925.66;5093393;28;1013;-48
2022/06/21 03:05:13;;;;;;;;;;;;;;;13.73;81.73;94919.72;5093660;28;1103;-48
2022/06/21 03:07:41;;;;;;;;;;;;;;;13.61;82.17;94916.66;5075243;28;1983;-48
2022/06/21 03:10:18;;;;;;;;;;;;;;;13.51;82.23;94926.84;5073381;28;1057;-48
2022/06/21 03:12:46;;;;;;;;;;;;;;;13.59;82.30;94922.22;5073153;28;1972;-48
2022/06/21 03:15:12;;;;;;;;;;;;;;;13.63;82.28;94918.16;5073318;28;985;-48
2022/06/21 03:17:56;;;;;;;;;;;;;;;13.63;82.15;94930.75;5073067;28;1033;-48
2022/06/21 03:20:22;;;;;;;;;;;;;;;13.67;82.39;94926.66;5073417;28;1242;-48
2022/06/21 03:22:50;;;;;;;;;;;;;;;13.75;82.43;94921.19;5073260;28;957;-48
2022/06/21 03:25:29;;;;;;;;;;;;;;;13.78;82.36;94922.69;5073111;28;1060;-48
2022/06/21 03:27:55;;;;;;;;;;;;;;;13.67;82.62;94934.72;5073072;28;1987;-48
2022/06/21 03:30:24;;;;;;;;;;;;;;;13.53;82.65;94933.72;5073328;28;1101;-48
2022/06/21 03:32:55;;;;;;;;;;;;;;;13.56;83.21;94929.81;5073292;28;1040;-48
2022/06/21 03:35:22;;;;;;;;;;;;;;;13.74;83.17;94937.53;5073222;28;1048;-48
2022/06/21 03:37:48;;;;;;;;;;;;;;;13.83;83.16;94939.91;5073038;28;1041;-48
2022/06/21 03:43:39;;;;;;;;;;;;;;;13.77;83.51;94946.03;5073324;28;1018;-47
2022/06/21 03:46:08;;;;;;;;;;;;;;;14.01;83.60;94936.84;4972150;28;1510;-47
2022/06/21 03:51:57;;;;;;;;;;;;;;;14.30;83.24;94939.66;5063727;28;1005;-48
2022/06/21 03:54:33;;;;;;;;;;;;;;;14.48;82.89;94939.25;5076695;28;1017;-48
2022/06/21 03:57:07;;;;;;;;;;;;;;;14.69;82.64;94935.78;5076903;28;1083;-48
2022/06/21 03:59:48;;;;;;;;;;;;;;;14.83;82.68;94935.72;5076579;28;1032;-47
2022/06/21 04:02:19;;;;;;;;;;;;;;;14.91;82.78;94934.75;5076815;28;1017;-48
2022/06/21 04:04:51;;;;;;;;;;;;;;;15.03;82.26;94924.28;5076757;28;996;-47
2022/06/21 04:07:17;;;;;;;;;;;;;;;15.20;81.84;94925.66;5091722;28;1988;-48
2022/06/21 04:09:43;;;;;;;;;;;;;;;15.46;81.29;94924.22;5096686;28;1120;-48
2022/06/21 04:12:14;;;;;;;;;;;;;;;15.55;81.28;94931.09;5097191;28;1041;-48
2022/06/21 04:14:46;;;;;;;;;;;;;;;15.63;79.36;94927.41;5096831;28;1049;-48
2022/06/21 04:17:31;;;;;;;;;;;;;;;15.82;78.06;94920.50;5097013;28;973;-48
2022/06/21 04:20:00;;;;;;;;;;;;;;;16.03;77.09;94916.88;5096669;28;945;-48
2022/06/21 04:22:31;;;;;;;;;;;;;;;16.18;77.57;94927.50;5096605;28;1056;-48
2022/06/21 04:25:04;;;;;;;;;;;;;;;16.37;78.60;94929.47;5096627;28;969;-48
2022/06/21 04:27:30;;;;;;;;;;;;;;;16.52;78.52;94926.63;5096578;28;1994;-48
2022/06/21 04:30:08;;;;;;;;;;;;;;;16.62;76.76;94933.47;5096456;28;1024;-48
2022/06/21 04:32:43;;;;;;;;;;;;;;;16.77;77.18;94931.44;5096312;28;1259;-48
2022/06/21 04:35:18;;;;;;;;;;;;;;;16.84;75.61;94939.56;5096244;28;1084;-48
2022/06/21 04:37:57;;;;;;;;;;;;;;;17.03;74.34;94941.47;5096511;28;1000;-48
2022/06/21 04:40:28;;;;;;;;;;;;;;;17.16;74.95;94946.06;5096314;28;1065;-48
2022/06/21 04:42:56;;;;;;;;;;;;;;;17.25;74.43;94944.81;5096492;28;1061;-48
2022/06/21 04:45:28;;;;;;;;;;;;;;;17.41;73.38;94948.13;5096031;28;1033;-48
2022/06/21 04:48:07;;;;;;;;;;;;;;;17.58;73.60;94929.63;5096403;28;1917;-48
2022/06/21 04:50:43;;;;;;;;;;;;;;;17.52;73.06;94947.50;5096173;28;980;-48
2022/06/21 04:53:12;;;;;;;;;;;;;;;17.54;73.17;94937.31;5096252;28;1047;-48
2022/06/21 04:55:43;;;;;;;;;;;;;;;17.55;71.87;94947.09;5095641;28;1851;-48
2022/06/21 04:58:09;;;;;;;;;;;;;;;17.53;73.54;94947.31;5096325;28;996;-48
2022/06/21 05:00:36;;;;;;;;;;;;;;;17.61;72.75;94954.38;5095440;28;956;-48
2022/06/21 05:03:06;;;;;;;;;;;;;;;17.76;73.15;94952.25;5096054;28;1045;-48
2022/06/21 05:05:34;;;;;;;;;;;;;;;17.82;71.67;94949.75;5095281;28;1158;-48
2022/06/21 05:08:15;;;;;;;;;;;;;;;17.99;70.60;94961.81;5075535;28;1909;-49
2022/06/21 05:10:42;;;;;;;;;;;;;;;17.94;72.34;94950.78;5075586;28;1041;-49
2022/06/21 05:13:20;;;;;;;;;;;;;;;17.97;72.48;94950.38;5075710;28;996;-48
2022/06/21 05:15:46;;;;;;;;;;;;;;;18.12;72.29;94948.25;5075373;28;965;-49
2022/06/21 05:18:16;;;;;;;;;;;;;;;18.08;70.19;94955.13;5075963;28;1055;-48
2022/06/21 05:20:48;;;;;;;;;;;;;;;18.19;72.04;94952.81;5075141;28;1117;-49
2022/06/21 05:23:16;;;;;;;;;;;;;;;18.43;70.25;94953.97;5075367;28;1033;-48
2022/06/21 05:25:43;;;;;;;;;;;;;;;18.53;70.91;94955.19;5075051;28;1008;-48
2022/06/21 05:28:18;;;;;;;;;;;;;;;18.68;70.18;94960.28;5075363;28;1999;-48
2022/06/21 05:30:44;;;;;;;;;;;;;;;18.84;70.02;94956.31;5074944;28;1081;-49
2022/06/21 05:33:14;;;;;;;;;;;;;;;18.92;67.99;94966.03;5075197;28;1024;-48
2022/06/21 05:35:40;;;;;;;;;;;;;;;19.09;68.83;94958.22;5074863;28;1021;-48
2022/06/21 05:38:10;;;;;;;;;;;;;;;19.15;68.96;94968.19;5075262;28;1002;-48
2022/06/21 05:40:57;;;;;;;;;;;;;;;19.07;68.60;94969.28;5074920;28;998;-48
2022/06/21 05:43:29;;;;;;;;;;;;;;;19.32;70.09;94965.78;5074900;28;1053;-48
2022/06/21 05:46:03;;;;;;;;;;;;;;;19.51;69.20;94977.53;5074705;28;1058;-49
2022/06/21 05:48:31;;;;;;;;;;;;;;;19.63;69.01;94969.50;5074919;28;1910;-48
2022/06/21 05:50:58;;;;;;;;;;;;;;;19.74;68.44;94967.97;5056941;28;1020;-48
2022/06/21 05:53:44;;;;;;;;;;;;;;;19.83;68.44;94963.94;5074604;28;1028;-49
2022/06/21 05:56:11;;;;;;;;;;;;;;;19.82;68.68;94967.69;5074413;28;1896;-49
2022/06/21 05:58:46;;;;;;;;;;;;;;;19.87;67.70;94957.00;5074832;28;977;-49
2022/06/21 06:01:15;;;;;;;;;;;;;;;20.06;68.88;94958.66;5074687;28;1030;-49
2022/06/21 06:03:47;;;;;;;;;;;;;;;20.07;68.29;94949.47;5074605;28;969;-48
2022/06/21 06:06:15;;;;;;;;;;;;;;;20.19;68.02;94956.88;5080441;28;1237;-48
2022/06/21 06:08:43;;;;;;;;;;;;;;;20.39;67.28;94949.31;5094571;28;1993;-49
2022/06/21 06:11:18;;;;;;;;;;;;;;;20.59;66.78;94951.78;5093910;28;977;-48
2022/06/21 06:13:45;;;;;;;;;;;;;;;20.80;67.21;94955.13;5094718;28;963;-48
2022/06/21 06:16:23;;;;;;;;;;;;;;;20.81;67.07;94960.31;5094307;28;1024;-49
2022/06/21 06:18:52;;;;;;;;;;;;;;;20.77;66.54;94959.13;5094476;28;1080;-48
2022/06/21 06:21:18;;;;;;;;;;;;;;;20.85;67.17;94953.38;5094223;28;1034;-49
2022/06/21 06:23:48;;;;;;;;;;;;;;;20.89;66.13;94952.91;5094108;28;1056;-49
2022/06/21 06:26:23;;;;;;;;;;;;;;;21.08;67.18;94959.09;5094434;28;1038;-49
2022/06/21 06:28:58;;;;;;;;;;;;;;;21.32;66.78;94957.28;5094424;28;1918;-49
2022/06/21 06:31:30;;;;;;;;;;;;;;;21.45;65.23;94954.41;5093918;28;1100;-49
2022/06/21 06:33:56;;;;;;;;;;;;;;;21.72;66.08;94959.38;5094719;28;1056;-49
2022/06/21 06:36:24;;;;;;;;;;;;;;;21.90;64.96;94955.75;5094189;28;972;-49
2022/06/21 06:38:50;;;;;;;;;;;;;;;21.97;64.29;94953.75;5094328;28;1033;-49
2022/06/21 06:41:16;;;;;;;;;;;;;;;22.14;64.67;94956.53;5093939;28;1024;-49
2022/06/21 06:43:50;;;;;;;;;;;;;;;22.12;65.55;94962.25;5093982;28;1029;-49
2022/06/21 06:46:19;;;;;;;;;;;;;;;22.16;64.68;94959.88;5093856;28;1044;-48
2022/06/21 06:48:45;;;;;;;;;;;;;;;22.21;65.43;94957.25;5093806;28;1910;-49
2022/06/21 06:51:14;;;;;;;;;;;;;;;22.51;64.51;94961.75;5093968;28;970;-49
2022/06/21 06:53:43;;;;;;;;;;;;;;;22.61;62.43;94957.34;5093785;28;999;-48
2022/06/21 06:56:14;;;;;;;;;;;;;;;22.74;64.68;94961.66;5093722;28;1123;-49
2022/06/21 06:58:39;;;;;;;;;;;;;;;22.91;63.12;94956.28;5094097;28;1047;-49
2022/06/21 07:01:13;;;;;;;;;;;;;;;22.83;63.65;94958.59;5093743;28;992;-49
2022/06/21 07:03:47;;;;;;;;;;;;;;;22.88;64.31;94955.94;5093565;28;1096;-49
2022/06/21 07:06:33;;;;;;;;;;;;;;;22.92;62.62;94946.22;5087687;28;1236;-49
2022/06/21 07:09:19;;;;;;;;;;;;;;;23.03;62.73;94949.94;5073456;28;998;-48
2022/06/21 07:11:54;;;;;;;;;;;;;;;23.21;62.55;94943.50;5056105;28;1289;-49
2022/06/21 07:14:25;;;;;;;;;;;;;;;23.30;63.80;94942.88;5073570;28;1036;-49
2022/06/21 07:16:54;;;;;;;;;;;;;;;23.39;61.35;94938.66;5073263;28;1016;-49
2022/06/21 07:19:20;;;;;;;;;;;;;;;23.52;62.19;94934.78;5073456;28;1021;-49
2022/06/21 07:21:46;;;;;;;;;;;;;;;23.56;61.92;94929.63;5073189;28;1083;-49
2022/06/21 07:24:18;;;;;;;;;;;;;;;23.59;61.70;94938.16;5072905;28;986;-49
2022/06/21 07:27:01;;;;;;;;;;;;;;;23.86;61.39;94940.25;5073270;28;1930;-49
2022/06/21 07:29:46;;;;;;;;;;;;;;;23.93;60.75;94946.38;5073338;28;974;-49
2022/06/21 07:32:19;;;;;;;;;;;;;;;24.02;61.02;94946.78;5072942;28;1842;-49
2022/06/21 07:34:48;;;;;;;;;;;;;;;24.24;62.06;94938.63;5073128;28;977;-49
2022/06/21 07:37:20;;;;;;;;;;;;;;;24.28;60.12;94941.66;5073210;28;1025;-49
2022/06/21 07:39:51;;;;;;;;;;;;;;;24.33;60.22;94936.28;5073242;28;1086;-49
2022/06/21 07:42:27;;;;;;;;;;;;;;;24.51;60.69;94938.75;5073040;28;970;-49
2022/06/21 07:44:58;;;;;;;;;;;;;;;24.71;60.50;94940.09;5073129;28;1065;-48
2022/06/21 07:47:50;;;;;;;;;;;;;;;24.70;57.63;94942.00;5073030;28;1902;-49
2022/06/21 07:50:42;;;;;;;;;;;;;;;24.80;60.01;94943.19;5068613;28;1630;-49
2022/06/21 07:53:13;;;;;;;;;;;;;;;24.82;58.29;94955.53;5068461;28;1117;-49
2022/06/21 07:55:59;;;;;;;;;;;;;;;24.92;59.49;94955.63;5073034;28;1005;-49
2022/06/21 07:58:25;;;;;;;;;;;;;;;24.99;57.30;94949.97;5072604;28;1264;-49
2022/06/21 08:06:41;;;;;;;;;;;;;;;25.32;56.68;94951.72;5080643;28;1185;-49
2022/06/21 08:09:13;;;;;;;;;;;;;;;25.53;57.93;94949.16;5093244;28;1053;-49
2022/06/21 08:11:41;;;;;;;;;;;;;;;25.61;58.02;94943.25;5093095;28;1007;-49
2022/06/21 08:14:07;;;;;;;;;;;;;;;25.63;57.18;94940.22;5092879;28;1004;-49
2022/06/21 08:16:36;;;;;;;;;;;;;;;25.68;57.71;94943.00;5092862;28;1079;-49
2022/06/21 08:19:15;;;;;;;;;;;;;;;25.77;56.73;94944.19;5093091;28;961;-49
2022/06/21 08:21:56;;;;;;;;;;;;;;;25.99;56.32;94948.75;5093050;28;1040;-49
2022/06/21 08:24:37;;;;;;;;;;;;;;;26.06;55.60;94946.59;5092560;28;961;-49
2022/06/21 08:27:03;;;;;;;;;;;;;;;26.06;55.24;94944.69;5093063;28;1996;-49
2022/06/21 08:29:34;;;;;;;;;;;;;;;26.18;55.38;94941.78;5092830;28;1032;-49
2022/06/21 08:32:02;;;;;;;;;;;;;;;26.30;57.27;94944.31;5092863;28;1112;-49
2022/06/21 08:34:31;;;;;;;;;;;;;;;26.43;54.60;94943.00;5093311;28;965;-49
2022/06/21 08:37:01;;;;;;;;;;;;;;;26.57;55.10;94937.88;5096496;28;1081;-49
2022/06/21 08:39:33;;;;;;;;;;;;;;;26.59;54.13;94942.00;5096148;28;1025;-49
2022/06/21 08:41:59;;;;;;;;;;;;;;;26.62;54.05;94940.66;5096415;28;1025;-49
2022/06/21 08:44:44;;;;;;;;;;;;;;;26.75;52.82;94939.34;5096253;28;960;-49
2022/06/21 08:47:26;;;;;;;;;;;;;;;26.90;54.78;94939.41;5096269;28;1913;-49
2022/06/21 08:49:52;;;;;;;;;;;;;;;27.10;54.61;94935.06;5096053;28;1029;-49
2022/06/21 08:52:42;;;;;;;;;;;;;;;27.07;52.80;94941.91;5096433;28;1045;-49
2022/06/21 08:55:15;;;;;;;;;;;;;;;27.01;53.63;94937.50;5095955;28;954;-49
2022/06/21 08:57:47;;;;;;;;;;;;;;;27.14;54.57;94944.41;5096134;28;1032;-49
2022/06/21 09:00:22;;;;;;;;;;;;;;;27.24;53.83;94936.19;5095948;28;1023;-49
2022/06/21 09:02:55;;;;;;;;;;;;;;;27.38;52.97;94934.63;5096019;28;1101;-49
2022/06/21 09:05:39;;;;;;;;;;;;;;;27.56;53.43;94937.91;5096042;28;965;-49
2022/06/21 09:08:08;;;;;;;;;;;;;;;27.63;53.63;94938.47;5075543;28;1906;-48
2022/06/21 09:10:40;;;;;;;;;;;;;;;27.68;54.74;94933.00;5075533;28;1079;-49
2022/06/21 09:13:10;;;;;;;;;;;;;;;27.56;53.99;94933.25;5075714;28;976;-49
2022/06/21 09:15:43;;;;;;;;;;;;;;;27.58;54.38;94935.72;5075584;28;930;-48
2022/06/21 09:18:29;;;;;;;;;;;;;;;27.68;53.19;94940.38;5075434;28;1127;-49
2022/06/21 09:21:03;;;;;;;;;;;;;;;27.76;52.80;94937.94;5061942;28;1753;-49
2022/06/21 09:23:35;;;;;;;;;;;;;;;27.88;53.69;94931.34;5074937;28;1120;-49
2022/06/21 09:26:07;;;;;;;;;;;;;;;27.78;51.80;94926.69;5075306;28;1016;-49
2022/06/21 09:28:51;;;;;;;;;;;;;;;27.69;50.81;94922.81;5074971;28;1981;-49
2022/06/21 09:31:17;;;;;;;;;;;;;;;27.77;54.70;94925.03;5075364;28;1081;-49
2022/06/21 09:33:48;;;;;;;;;;;;;;;27.86;54.09;94920.63;5074907;28;1032;-49
2022/06/21 09:36:27;;;;;;;;;;;;;;;27.84;53.80;94917.31;5075229;28;1032;-49
2022/06/21 09:39:05;;;;;;;;;;;;;;;28.02;54.41;94907.72;5075105;28;964;-49
2022/06/21 09:41:41;;;;;;;;;;;;;;;28.07;53.86;94907.72;5074978;28;1049;-49
2022/06/21 09:44:09;;;;;;;;;;;;;;;28.17;52.99;94910.47;5074829;28;1041;-49
2022/06/21 09:46:53;;;;;;;;;;;;;;;28.24;54.38;94907.41;5075089;28;1024;-49
2022/06/21 09:49:37;;;;;;;;;;;;;;;28.19;52.12;94901.91;5074907;28;1057;-49
2022/06/21 09:52:22;;;;;;;;;;;;;;;28.24;52.20;94904.66;5074894;28;1037;-49
2022/06/21 09:54:57;;;;;;;;;;;;;;;28.36;52.54;94899.69;5074381;28;1049;-49
2022/06/21 09:57:27;;;;;;;;;;;;;;;28.33;51.21;94896.69;5074628;28;1080;-49
2022/06/21 10:00:11;;;;;;;;;;;;;;;28.38;53.33;94891.13;5074623;28;1017;-49
2022/06/21 10:02:47;;;;;;;;;;;;;;;28.52;52.94;94886.75;5074580;28;1040;-49
2022/06/21 10:05:32;;;;;;;;;;;;;;;28.66;54.10;94888.88;5074373;28;992;-49
2022/06/21 10:08:06;;;;;;;;;;;;;;;28.82;53.77;94893.22;5074468;28;1991;-48
2022/06/21 10:10:50;;;;;;;;;;;;;;;28.49;53.38;94892.75;5074271;28;1035;-49
2022/06/21 10:13:23;;;;;;;;;;;;;;;28.51;53.81;94897.97;5074424;28;1052;-49
2022/06/21 10:15:55;;;;;;;;;;;;;;;28.56;53.76;94900.75;5074124;28;1056;-48
2022/06/21 10:18:43;;;;;;;;;;;;;;;28.64;52.74;94888.34;5074340;28;1171;-48
2022/06/21 10:21:28;;;;;;;;;;;;;;;28.60;54.27;94888.09;5074199;28;957;-49
2022/06/21 10:24:12;;;;;;;;;;;;;;;28.66;53.39;94895.19;5073889;28;1036;-48
2022/06/21 10:26:39;;;;;;;;;;;;;;;28.32;53.60;94893.09;5074068;28;970;-48
2022/06/21 10:29:14;;;;;;;;;;;;;;;28.23;52.62;94881.03;5074149;28;1914;-48
2022/06/21 10:31:47;;;;;;;;;;;;;;;28.18;53.44;94876.38;5073987;28;1798;-48
2022/06/21 10:34:23;;;;;;;;;;;;;;;28.05;53.23;94879.69;5074007;28;1138;-48
2022/06/21 10:37:07;;;;;;;;;;;;;;;27.98;53.49;94890.13;5074001;28;1004;-48
2022/06/21 10:39:33;;;;;;;;;;;;;;;27.87;52.96;94899.47;5073799;28;1864;-48
2022/06/21 10:45:05;;;;;;;;;;;;;;;27.74;52.11;94890.69;5073812;28;977;-48
2022/06/21 10:47:52;;;;;;;;;;;;;;;27.66;52.90;94888.50;5073584;28;1905;-48
2022/06/21 10:50:30;;;;;;;;;;;;;;;27.84;52.79;94889.88;5073707;28;968;-48
2022/06/21 10:53:15;;;;;;;;;;;;;;;28.13;52.75;94881.06;5073697;28;961;-48
2022/06/21 10:55:48;;;;;;;;;;;;;;;28.34;54.55;94873.56;5073424;28;938;-48
2022/06/21 10:58:33;;;;;;;;;;;;;;;28.32;52.92;94875.78;5073394;28;961;-48
2022/06/21 11:01:18;;;;;;;;;;;;;;;28.53;51.75;94873.81;5055878;28;964;-48
2022/06/21 11:04:00;;;;;;;;;;;;;;;28.70;50.67;94876.22;5073468;28;1037;-48
2022/06/21 11:06:29;;;;;;;;;;;;;;;28.80;50.42;94877.00;5081188;28;1221;-48
2022/06/21 11:08:56;;;;;;;;;;;;;;;28.92;51.42;94882.16;5093696;28;1905;-48
2022/06/21 11:11:28;;;;;;;;;;;;;;;29.05;51.57;94875.19;5093388;28;1009;-48
2022/06/21 11:14:00;;;;;;;;;;;;;;;29.20;49.04;94872.38;5093631;28;1057;-48
2022/06/21 11:16:44;;;;;;;;;;;;;;;29.26;49.16;94875.94;5093571;28;1065;-48
2022/06/21 11:19:23;;;;;;;;;;;;;;;29.32;51.29;94883.03;5093693;28;970;-48
2022/06/21 11:21:48;;;;;;;;;;;;;;;29.31;49.05;94880.56;5093327;28;1001;-48
2022/06/21 11:24:14;;;;;;;;;;;;;;;29.16;47.86;94887.84;5093356;28;1004;-48
2022/06/21 11:26:40;;;;;;;;;;;;;;;29.18;49.69;94874.59;5093141;28;954;-48
2022/06/21 11:29:07;;;;;;;;;;;;;;;29.31;50.17;94884.16;5093333;28;1909;-48
2022/06/21 11:31:48;;;;;;;;;;;;;;;29.37;49.56;94883.00;5093258;28;1084;-48
2022/06/21 11:34:22;;;;;;;;;;;;;;;29.44;47.68;94885.41;5093430;28;1024;-48
2022/06/21 11:36:48;;;;;;;;;;;;;;;29.45;47.64;94881.56;5093344;28;977;-48
2022/06/21 11:39:22;;;;;;;;;;;;;;;29.46;49.60;94880.44;5093325;28;1011;-49
2022/06/21 11:42:08;;;;;;;;;;;;;;;29.44;48.03;94892.88;5093168;28;1968;-48
2022/06/21 11:44:52;;;;;;;;;;;;;;;29.41;48.80;94883.25;5093353;28;1008;-48
2022/06/21 11:47:41;;;;;;;;;;;;;;;29.49;47.88;94881.81;5092997;28;1906;-48
2022/06/21 11:50:22;;;;;;;;;;;;;;;29.59;47.15;94876.22;5082661;28;1214;-49
2022/06/21 11:53:00;;;;;;;;;;;;;;;29.62;48.64;94864.63;5093207;28;982;-48
2022/06/21 11:55:35;;;;;;;;;;;;;;;29.66;45.32;94868.44;5092925;28;1093;-48
2022/06/21 11:58:16;;;;;;;;;;;;;;;29.60;47.21;94866.88;5093100;28;1030;-48
2022/06/21 12:00:57;;;;;;;;;;;;;;;29.61;46.45;94876.75;5093006;28;1072;-48
2022/06/21 12:03:26;;;;;;;;;;;;;;;29.68;46.94;94866.22;5093080;28;1971;-49
2022/06/21 12:05:58;;;;;;;;;;;;;;;29.68;47.27;94865.41;5089826;28;1209;-48
2022/06/21 12:08:50;;;;;;;;;;;;;;;29.60;46.75;94866.88;5072687;28;1996;-48
2022/06/21 12:11:16;;;;;;;;;;;;;;;29.61;45.84;94854.72;5076390;28;1008;-48
2022/06/21 12:14:05;;;;;;;;;;;;;;;29.71;47.76;94860.16;5076761;28;1046;-49
2022/06/21 12:16:37;;;;;;;;;;;;;;;29.82;48.32;94857.31;5076429;28;1084;-49
2022/06/21 12:19:07;;;;;;;;;;;;;;;29.76;48.53;94854.59;5076534;28;1110;-48
2022/06/21 12:21:37;;;;;;;;;;;;;;;29.35;47.53;94863.19;5076289;28;1024;-49
2022/06/21 12:24:06;;;;;;;;;;;;;;;29.36;47.16;94861.25;5076272;28;1036;-49
2022/06/21 12:26:33;;;;;;;;;;;;;;;29.48;47.12;94853.47;5076326;28;1036;-49
2022/06/21 12:29:00;;;;;;;;;;;;;;;29.70;47.82;94852.16;5076364;28;1975;-49
2022/06/21 12:31:28;;;;;;;;;;;;;;;29.88;46.30;94857.00;5075940;28;1188;-49
2022/06/21 12:34:01;;;;;;;;;;;;;;;29.90;46.19;94845.66;5076557;28;953;-49
2022/06/21 12:36:34;;;;;;;;;;;;;;;29.83;46.10;94856.22;5076298;28;966;-48
2022/06/21 12:39:18;;;;;;;;;;;;;;;29.77;45.35;94856.25;5076471;28;974;-48
2022/06/21 12:41:50;;;;;;;;;;;;;;;29.72;45.92;94856.28;5075943;28;1017;-48
2022/06/21 12:44:37;;;;;;;;;;;;;;;29.57;46.84;94848.97;5076376;28;1012;-48
2022/06/21 12:47:06;;;;;;;;;;;;;;;29.29;46.84;94847.84;5075729;28;1910;-49
2022/06/21 12:49:52;;;;;;;;;;;;;;;29.16;46.41;94845.72;5076033;28;1001;-48
2022/06/21 12:52:25;;;;;;;;;;;;;;;29.04;48.09;94850.72;5075728;28;1037;-49
2022/06/21 12:54:54;;;;;;;;;;;;;;;29.17;46.66;94850.09;5076030;28;1219;-49
2022/06/21 12:57:20;;;;;;;;;;;;;;;29.24;46.94;94849.81;5075858;28;966;-49
2022/06/21 12:59:46;;;;;;;;;;;;;;;29.13;46.91;94851.78;5075805;28;1838;-49
2022/06/21 13:02:30;;;;;;;;;;;;;;;28.99;47.98;94849.66;5075717;28;980;-48
2022/06/21 13:04:59;;;;;;;;;;;;;;;28.79;47.76;94842.31;5075724;28;1061;-48
2022/06/21 13:07:25;;;;;;;;;;;;;;;28.72;48.44;94843.75;5091612;28;1934;-48
2022/06/21 13:10:09;;;;;;;;;;;;;;;28.64;47.61;94831.41;5095957;28;1021;-48
2022/06/21 13:12:38;;;;;;;;;;;;;;;28.53;47.78;94838.91;5095669;28;1032;-48
2022/06/21 13:15:14;;;;;;;;;;;;;;;28.46;47.70;94841.09;5095891;28;1004;-48
2022/06/21 13:18:00;;;;;;;;;;;;;;;28.45;49.30;94835.88;5095466;28;1037;-48
2022/06/21 13:20:45;;;;;;;;;;;;;;;28.58;48.86;94833.34;5095178;28;1248;-48
2022/06/21 13:23:29;;;;;;;;;;;;;;;28.46;47.19;94834.75;5095557;28;988;-48
2022/06/21 13:26:07;;;;;;;;;;;;;;;28.55;48.10;94827.59;5095599;28;1084;-48
2022/06/21 13:28:33;;;;;;;;;;;;;;;28.76;48.20;94836.56;5095416;28;1906;-48
2022/06/21 13:31:09;;;;;;;;;;;;;;;28.85;48.10;94832.09;5095362;28;1096;-49
2022/06/21 13:33:35;;;;;;;;;;;;;;;28.95;47.89;94843.06;5095334;28;982;-48
2022/06/21 13:36:08;;;;;;;;;;;;;;;28.91;48.68;94839.25;5095442;28;1020;-49
2022/06/21 13:38:53;;;;;;;;;;;;;;;28.74;47.99;94830.53;5095375;28;1057;-48
2022/06/21 13:44:18;;;;;;;;;;;;;;;28.88;48.42;94842.56;5095131;28;1020;-49
2022/06/21 13:46:52;;;;;;;;;;;;;;;29.06;48.89;94837.50;5095064;28;978;-48
2022/06/21 13:49:21;;;;;;;;;;;;;;;29.16;48.69;94831.97;5094991;28;1041;-48